Time;durP1;ratioP1;P1;durP2;ratioP2;P2;SDS_P1;SDS_P2;PMS_P1;PMS_P2;Temp;Humidity;BMP_temperature;BMP_pressure;BME280_temperature;BME280_humidity;BME280_pressure;Samples;Min_cycle;Max_cycle;Signal;HPM_P1;HPM_P2
2023/03/04 00:01:43;;;;;;;10.63;5.67;;;2.50;99.90;2.20;100916.00;;;;4936345;28;93561;-66
2023/03/04 00:04:09;;;;;;;8.70;6.03;;;2.50;99.90;2.20;100926.00;;;;4937770;28;93099;-66
2023/03/04 00:06:35;;;;;;;8.70;5.50;;;2.40;99.90;2.20;100921.00;;;;4936910;28;106192;-66
2023/03/04 00:09:02;;;;;;;8.33;6.43;;;2.40;99.90;2.20;100920.00;;;;4935729;28;121975;-66
2023/03/04 00:11:28;;;;;;;9.03;5.70;;;2.50;99.90;2.20;100928.00;;;;4936624;28;94161;-65
2023/03/04 00:13:55;;;;;;;7.17;5.13;;;2.40;99.90;2.20;100920.00;;;;4936148;28;100492;-65
2023/03/04 00:16:20;;;;;;;10.67;5.93;;;2.40;99.90;2.20;100904.00;;;;4936522;28;99843;-65
2023/03/04 00:18:46;;;;;;;12.13;5.80;;;2.40;99.90;2.20;100918.00;;;;4937411;28;92973;-66
2023/03/04 00:21:12;;;;;;;12.90;5.57;;;2.50;99.90;2.20;100921.00;;;;4930687;28;122534;-66
2023/03/04 00:23:40;;;;;;;9.13;4.83;;;3.40;99.90;2.20;100907.00;;;;4935599;28;109575;-64
2023/03/04 00:26:06;;;;;;;7.00;5.20;;;2.40;99.90;2.20;100900.00;;;;4936657;28;94697;-65
2023/03/04 00:28:32;;;;;;;8.47;5.77;;;2.40;99.90;2.20;100899.00;;;;4933893;28;94505;-66
2023/03/04 00:30:58;;;;;;;21.43;5.73;;;3.30;99.90;2.20;100901.00;;;;4932651;28;122428;-66
2023/03/04 00:33:23;;;;;;;8.77;5.60;;;2.40;99.90;2.20;100901.00;;;;4932847;28;92632;-67
2023/03/04 00:35:49;;;;;;;10.97;5.80;;;2.40;99.90;2.20;100888.00;;;;4915220;28;108050;-65
2023/03/04 00:38:15;;;;;;;6.47;4.20;;;2.40;99.90;2.10;100882.00;;;;4934502;28;114205;-65
2023/03/04 00:40:40;;;;;;;8.90;5.97;;;2.40;99.90;2.20;100898.00;;;;4931216;28;122716;-65
2023/03/04 00:43:06;;;;;;;11.17;6.60;;;2.50;99.90;2.10;100895.00;;;;4932240;28;110764;-66
2023/03/04 00:45:32;;;;;;;11.10;5.97;;;2.30;99.90;2.10;100890.00;;;;4933909;28;92437;-65
2023/03/04 00:47:57;;;;;;;11.43;7.37;;;2.40;99.90;2.10;100896.00;;;;4916660;28;122111;-66
2023/03/04 00:50:23;;;;;;;10.13;5.50;;;3.20;99.90;2.10;100893.00;;;;4930041;28;122976;-65
2023/03/04 00:52:49;;;;;;;9.83;6.50;;;2.30;99.90;2.10;100888.00;;;;4932251;28;109972;-67
2023/03/04 00:55:14;;;;;;;6.50;5.17;;;2.30;99.90;2.10;100886.00;;;;4933259;28;108221;-65
2023/03/04 00:57:40;;;;;;;13.50;4.73;;;2.40;99.90;2.10;100887.00;;;;4930914;28;115716;-65
2023/03/04 01:00:09;;;;;;;10.50;6.33;;;2.40;99.90;2.10;100887.00;;;;4933067;28;98840;-66
2023/03/04 01:02:34;;;;;;;9.57;4.73;;;2.70;99.90;2.10;100874.00;;;;4933082;28;93051;-65
2023/03/04 01:05:00;;;;;;;7.00;6.30;;;2.20;99.90;2.10;100866.00;;;;4926635;28;108738;-65
2023/03/04 01:07:26;;;;;;;10.47;6.50;;;2.30;99.90;2.10;100866.00;;;;4932052;28;122606;-67
2023/03/04 01:09:51;;;;;;;8.27;5.50;;;2.30;99.90;2.10;100867.00;;;;4933139;28;122307;-66
2023/03/04 01:12:17;;;;;;;11.10;5.67;;;2.40;99.90;2.10;100854.00;;;;4932554;28;93029;-66
2023/03/04 01:14:43;;;;;;;6.70;4.87;;;2.30;99.90;2.10;100854.00;;;;4928124;28;93144;-65
2023/03/04 01:17:10;;;;;;;8.20;5.47;;;2.20;99.90;2.00;100844.00;;;;4932093;28;107513;-64
2023/03/04 01:19:36;;;;;;;7.93;5.57;;;2.30;99.90;2.10;100843.00;;;;4931812;28;93047;-65
2023/03/04 01:22:02;;;;;;;11.53;6.63;;;2.20;99.90;2.10;100832.00;;;;4933488;28;109956;-65
2023/03/04 01:24:29;;;;;;;11.97;6.43;;;3.00;99.90;2.00;100825.00;;;;4933079;28;92846;-66
2023/03/04 01:26:55;;;;;;;14.80;6.83;;;2.20;99.90;2.00;100834.00;;;;4932636;28;93126;-66
2023/03/04 01:29:20;;;;;;;13.23;8.40;;;2.20;99.90;2.00;100824.00;;;;4932198;28;111792;-65
2023/03/04 01:31:46;;;;;;;7.40;4.90;;;2.30;99.90;2.10;100824.00;;;;4932614;28;96391;-65
2023/03/04 01:34:12;;;;;;;8.37;5.90;;;2.30;99.90;2.00;100815.00;;;;4931972;28;104967;-65
2023/03/04 01:36:37;;;;;;;13.43;6.30;;;2.30;99.90;2.00;100821.00;;;;4931668;28;94062;-65
2023/03/04 01:39:04;;;;;;;6.60;5.50;;;2.30;99.90;2.10;100822.00;;;;4931923;28;122443;-67
2023/03/04 01:41:30;;;;;;;12.53;6.20;;;2.30;99.90;2.00;100814.00;;;;4929350;28;110169;-65
2023/03/04 01:44:00;;;;;;;8.80;5.77;;;2.30;99.90;2.10;100822.00;;;;4934819;28;109222;-65
2023/03/04 01:46:25;;;;;;;8.60;6.17;;;3.40;99.90;2.10;100809.00;;;;4930683;28;93186;-66
2023/03/04 01:48:51;;;;;;;12.57;6.77;;;2.20;99.90;2.10;100807.00;;;;4929178;28;112354;-65
2023/03/04 01:51:20;;;;;;;8.67;6.87;;;2.20;99.90;2.10;100799.00;;;;4931276;28;109590;-64
2023/03/04 01:53:53;;;;;;;13.27;6.17;;;2.40;99.90;2.10;100808.00;;;;4933078;28;96748;-65
2023/03/04 01:56:37;;;;;;;10.87;6.63;;;2.90;99.90;2.10;100804.00;;;;4930542;28;92777;-65
2023/03/04 01:59:22;;;;;;;11.97;6.27;;;2.40;99.90;2.10;100798.00;;;;4930268;28;116447;-66
2023/03/04 02:01:59;;;;;;;7.63;6.07;;;2.30;99.90;2.10;100793.00;;;;4932032;28;93001;-65
2023/03/04 02:04:33;;;;;;;12.47;6.67;;;2.40;99.90;2.10;100788.00;;;;4947255;28;93011;-65
2023/03/04 02:07:00;;;;;;;6.17;4.80;;;3.40;99.90;2.10;100779.00;;;;4931827;28;93913;-66
2023/03/04 02:09:27;;;;;;;7.77;5.37;;;2.40;99.90;2.10;100788.00;;;;4929736;28;113259;-66
2023/03/04 02:11:53;;;;;;;12.53;6.23;;;2.40;99.90;2.10;100787.00;;;;4928097;28;92285;-66
2023/03/04 02:14:20;;;;;;;7.43;5.30;;;2.40;99.90;2.10;100775.00;;;;4946829;28;93165;-66
2023/03/04 02:16:47;;;;;;;8.40;5.90;;;2.40;99.90;2.20;100780.00;;;;4932282;28;93970;-65
2023/03/04 02:19:25;;;;;;;5.37;4.57;;;2.40;99.90;2.20;100773.00;;;;4930401;28;103742;-67
2023/03/04 02:21:51;;;;;;;9.00;5.77;;;2.30;99.90;2.10;100771.00;;;;4932477;28;92768;-66
2023/03/04 02:24:30;;;;;;;8.90;5.33;;;2.40;99.90;2.20;100781.00;;;;4931418;28;108293;-65
2023/03/04 02:26:56;;;;;;;9.13;5.93;;;2.40;99.90;2.10;100768.00;;;;4930725;28;93177;-66
2023/03/04 02:29:21;;;;;;;6.40;5.17;;;2.30;99.90;2.10;100761.00;;;;4929837;28;121362;-65
2023/03/04 02:31:50;;;;;;;9.07;5.90;;;2.40;99.90;2.10;100757.00;;;;4932185;28;92667;-67
2023/03/04 02:34:27;;;;;;;9.67;5.03;;;2.40;99.90;2.20;100761.00;;;;4930346;28;93201;-65
2023/03/04 02:36:54;;;;;;;8.50;6.80;;;2.40;99.90;2.20;100759.00;;;;4931291;28;92439;-66
2023/03/04 02:39:20;;;;;;;10.37;5.83;;;2.60;99.90;2.20;100755.00;;;;4930158;28;120163;-66
2023/03/04 02:41:52;;;;;;;8.17;6.63;;;2.40;99.90;2.20;100756.00;;;;4931684;28;110882;-65
2023/03/04 02:44:23;;;;;;;7.20;4.83;;;2.40;99.90;2.20;100754.00;;;;4929737;28;93987;-65
2023/03/04 02:46:49;;;;;;;6.60;4.80;;;2.50;99.90;2.20;100751.00;;;;4932778;28;93176;-66
2023/03/04 02:49:16;;;;;;;9.70;5.80;;;2.50;99.90;2.20;100750.00;;;;4941441;28;92877;-65
2023/03/04 02:51:42;;;;;;;7.40;5.00;;;2.40;99.90;2.20;100745.00;;;;4946352;28;92880;-65
2023/03/04 02:54:37;;;;;;;6.27;5.03;;;2.50;99.90;2.20;100741.00;;;;4937297;28;92983;-65
2023/03/04 02:57:06;;;;;;;11.30;5.23;;;2.50;99.90;2.20;100748.00;;;;4926904;28;118089;-66
2023/03/04 02:59:34;;;;;;;6.63;5.23;;;2.40;99.90;2.20;100752.00;;;;4934017;28;108680;-65
2023/03/04 03:01:59;;;;;;;6.47;5.03;;;2.50;99.90;2.30;100730.00;;;;4931921;28;95476;-64
2023/03/04 03:04:25;;;;;;;10.90;5.90;;;3.40;99.90;2.30;100732.00;;;;4931258;28;102345;-65
2023/03/04 03:06:51;;;;;;;9.93;6.07;;;2.40;99.90;2.30;100725.00;;;;4929103;28;120226;-64
2023/03/04 03:09:17;;;;;;;7.47;5.33;;;2.60;99.90;2.30;100733.00;;;;4930298;28;93662;-64
2023/03/04 03:11:43;;;;;;;12.93;5.97;;;2.50;99.90;2.30;100728.00;;;;4931506;28;93056;-66
2023/03/04 03:14:09;;;;;;;6.53;4.57;;;2.50;99.90;2.30;100718.00;;;;4930565;28;108689;-64
2023/03/04 03:16:34;;;;;;;10.03;5.13;;;2.60;99.90;2.30;100732.00;;;;4929859;28;121663;-66
2023/03/04 03:19:00;;;;;;;9.13;5.83;;;2.50;99.90;2.30;100724.00;;;;4929095;28;122690;-64
2023/03/04 03:21:26;;;;;;;5.57;5.00;;;2.50;99.90;2.40;100715.00;;;;4914546;28;92954;-66
2023/03/04 03:23:52;;;;;;;9.37;5.40;;;2.60;99.90;2.40;100726.00;;;;4930018;28;108829;-65
2023/03/04 03:26:18;;;;;;;10.20;5.33;;;2.60;99.90;2.40;100735.00;;;;4912057;28;122087;-65
2023/03/04 03:28:44;;;;;;;6.40;4.57;;;2.50;99.90;2.40;100739.00;;;;4931383;28;93162;-65
2023/03/04 03:31:09;;;;;;;7.93;4.17;;;2.60;99.90;2.40;100734.00;;;;4930437;28;110547;-65
2023/03/04 03:33:35;;;;;;;11.90;5.77;;;2.60;99.90;2.40;100734.00;;;;4930141;28;108328;-65
2023/03/04 03:36:01;;;;;;;13.77;5.70;;;2.60;99.90;2.40;100723.00;;;;4930613;28;93014;-64
2023/03/04 03:38:27;;;;;;;10.17;5.50;;;2.70;99.90;2.40;100732.00;;;;4930588;28;93492;-65
2023/03/04 03:40:53;;;;;;;11.07;4.93;;;2.70;99.90;2.40;100724.00;;;;4927582;28;92905;-66
2023/03/04 03:43:19;;;;;;;6.70;4.77;;;2.70;99.90;2.50;100723.00;;;;4931177;28;109292;-64
2023/03/04 03:45:45;;;;;;;9.57;5.37;;;2.70;99.90;2.50;100720.00;;;;4912462;28;122130;-65
2023/03/04 03:48:10;;;;;;;8.17;5.40;;;3.40;99.90;2.50;100718.00;;;;4932802;28;96052;-66
2023/03/04 03:50:36;;;;;;;9.77;5.13;;;3.70;99.90;2.50;100724.00;;;;4931738;28;109921;-66
2023/03/04 03:53:02;;;;;;;12.50;5.83;;;2.70;99.90;2.50;100735.00;;;;4930371;28;93066;-66
2023/03/04 03:55:29;;;;;;;6.40;5.63;;;2.70;99.90;2.50;100730.00;;;;4931994;28;94035;-65
2023/03/04 03:57:54;;;;;;;6.27;4.83;;;2.80;99.90;2.50;100729.00;;;;4894014;28;94610;-66
2023/03/04 04:00:20;;;;;;;9.33;6.10;;;2.80;99.90;2.50;100727.00;;;;4929070;28;110118;-65
2023/03/04 04:02:46;;;;;;;10.10;5.13;;;2.70;99.90;2.50;100735.00;;;;4931224;28;99512;-65
2023/03/04 04:05:12;;;;;;;10.80;4.97;;;2.70;99.90;2.50;100731.00;;;;4933339;28;121715;-64
2023/03/04 04:07:38;;;;;;;9.80;4.67;;;2.70;99.90;2.60;100733.00;;;;4933922;28;94169;-64
2023/03/04 04:10:05;;;;;;;7.73;5.03;;;2.70;99.90;2.50;100738.00;;;;4934544;28;109875;-68
2023/03/04 04:12:31;;;;;;;7.77;5.50;;;2.70;99.90;2.60;100728.00;;;;4934458;28;95686;-64
2023/03/04 04:14:56;;;;;;;12.53;5.97;;;2.70;99.90;2.60;100730.00;;;;4933956;28;108643;-66
2023/03/04 04:17:22;;;;;;;6.50;4.07;;;3.60;99.90;2.60;100735.00;;;;4932221;28;122836;-64
2023/03/04 04:19:48;;;;;;;12.20;5.33;;;2.70;99.90;2.60;100733.00;;;;4933345;28;109483;-63
2023/03/04 04:22:17;;;;;;;8.03;4.53;;;2.80;99.90;2.60;100739.00;;;;4932972;28;98447;-64
2023/03/04 04:24:42;;;;;;;8.43;4.63;;;3.10;99.90;2.60;100735.00;;;;4933907;28;93090;-63
2023/03/04 04:27:09;;;;;;;9.20;5.07;;;2.80;99.90;2.60;100736.00;;;;4932629;28;122445;-64
2023/03/04 04:29:35;;;;;;;6.70;4.80;;;2.80;99.90;2.60;100727.00;;;;4916580;28;100961;-66
2023/03/04 04:32:01;;;;;;;6.10;3.97;;;2.80;99.90;2.60;100727.00;;;;4934933;28;93258;-64
2023/03/04 04:34:27;;;;;;;6.13;3.80;;;2.80;99.90;2.60;100718.00;;;;4932167;28;123314;-65
2023/03/04 04:36:52;;;;;;;6.03;3.50;;;3.20;99.90;2.60;100724.00;;;;4931352;28;122472;-65
2023/03/04 04:39:18;;;;;;;5.13;2.77;;;2.80;99.90;2.60;100724.00;;;;4933224;28;109788;-65
2023/03/04 04:41:45;;;;;;;6.50;4.40;;;2.80;99.90;2.60;100719.00;;;;4915990;28;108571;-65
2023/03/04 04:44:12;;;;;;;7.50;4.83;;;2.80;99.90;2.60;100708.00;;;;4934162;28;106834;-64
2023/03/04 04:46:38;;;;;;;10.47;4.43;;;2.80;99.90;2.60;100710.00;;;;4932400;28;93893;-67
2023/03/04 04:49:05;;;;;;;5.97;3.93;;;2.90;99.90;2.60;100712.00;;;;4932923;28;100737;-64
2023/03/04 04:51:32;;;;;;;7.83;4.47;;;2.80;99.90;2.60;100702.00;;;;4933556;28;93100;-64
2023/03/04 04:53:59;;;;;;;4.83;4.17;;;3.30;99.90;2.60;100688.00;;;;4933457;28;93669;-64
2023/03/04 04:56:25;;;;;;;7.40;4.43;;;2.90;99.90;2.60;100708.00;;;;4933212;28;106872;-65
2023/03/04 04:58:56;;;;;;;8.30;4.63;;;2.80;99.90;2.60;100695.00;;;;4933003;28;94683;-64
2023/03/04 05:01:22;;;;;;;6.97;4.27;;;2.90;99.90;2.60;100692.00;;;;4932569;28;92748;-65
2023/03/04 05:03:49;;;;;;;7.03;4.07;;;2.90;99.90;2.60;100696.00;;;;4934372;28;92855;-65
2023/03/04 05:06:15;;;;;;;6.20;4.17;;;2.80;99.90;2.60;100688.00;;;;4930843;28;92879;-64
2023/03/04 05:08:41;;;;;;;6.07;3.87;;;2.80;99.90;2.60;100688.00;;;;4930111;28;110066;-65
2023/03/04 05:11:07;;;;;;;11.07;4.50;;;2.80;99.90;2.60;100684.00;;;;4931204;28;109093;-64
2023/03/04 05:13:33;;;;;;;5.40;4.13;;;3.40;99.90;2.60;100692.00;;;;4931681;28;93550;-66
2023/03/04 05:15:59;;;;;;;4.33;2.73;;;2.80;99.90;2.60;100685.00;;;;4931805;28;92912;-66
2023/03/04 05:18:33;;;;;;;5.17;3.70;;;2.70;99.90;2.60;100670.00;;;;4932998;28;98701;-65
2023/03/04 05:21:01;;;;;;;6.83;4.60;;;2.80;99.90;2.50;100680.00;;;;4930809;28;108749;-65
2023/03/04 05:23:30;;;;;;;9.23;5.23;;;2.70;99.90;2.50;100671.00;;;;4932937;28;93981;-65
2023/03/04 05:25:56;;;;;;;4.90;3.97;;;2.90;99.90;2.50;100665.00;;;;4932683;28;115923;-65
2023/03/04 05:28:22;;;;;;;5.67;4.60;;;2.90;99.90;2.50;100674.00;;;;4930660;28;110647;-66
2023/03/04 05:30:48;;;;;;;8.87;3.87;;;2.80;99.90;2.50;100677.00;;;;4931377;28;93167;-65
2023/03/04 05:33:16;;;;;;;9.33;4.37;;;2.70;99.90;2.50;100660.00;;;;4930445;28;112551;-66
2023/03/04 05:35:43;;;;;;;7.80;4.00;;;2.80;99.90;2.50;100667.00;;;;4933580;28;93800;-65
2023/03/04 05:38:12;;;;;;;6.10;4.10;;;2.80;99.90;2.50;100663.00;;;;4931690;28;92858;-66
2023/03/04 05:40:38;;;;;;;6.03;4.40;;;2.70;99.90;2.50;100657.00;;;;4933856;28;98437;-65
2023/03/04 05:43:04;;;;;;;9.07;4.77;;;3.20;99.90;2.50;100655.00;;;;4913853;28;110200;-65
2023/03/04 05:45:30;;;;;;;12.83;4.27;;;2.70;99.90;2.50;100661.00;;;;4931816;28;102720;-66
2023/03/04 05:47:56;;;;;;;8.67;3.87;;;2.70;99.90;2.50;100663.00;;;;4930599;28;110681;-65
2023/03/04 05:50:22;;;;;;;6.77;3.83;;;2.80;99.90;2.50;100655.00;;;;4933170;28;99885;-66
2023/03/04 05:52:49;;;;;;;6.83;3.83;;;2.70;99.90;2.50;100655.00;;;;4929026;28;93130;-65
2023/03/04 05:55:16;;;;;;;7.37;4.03;;;2.70;99.90;2.50;100659.00;;;;4928110;28;122117;-65
2023/03/04 05:57:42;;;;;;;7.83;3.80;;;2.80;99.90;2.50;100666.00;;;;4928085;28;93210;-65
2023/03/04 06:00:10;;;;;;;6.63;4.03;;;2.70;99.90;2.50;100657.00;;;;4925922;28;93805;-65
2023/03/04 06:02:36;;;;;;;9.67;4.40;;;2.70;99.90;2.50;100657.00;;;;4928104;28;93732;-66
2023/03/04 06:05:03;;;;;;;10.47;5.70;;;2.80;99.90;2.50;100655.00;;;;4928239;28;115167;-67
2023/03/04 06:07:29;;;;;;;9.37;4.97;;;2.60;99.90;2.50;100657.00;;;;4927220;28;92994;-63
2023/03/04 06:09:54;;;;;;;5.33;4.03;;;2.70;99.90;2.50;100660.00;;;;4928841;28;108393;-67
2023/03/04 06:12:20;;;;;;;8.77;4.50;;;2.70;99.90;2.50;100656.00;;;;4926407;28;122368;-66
2023/03/04 06:14:46;;;;;;;10.80;4.90;;;2.70;99.90;2.50;100652.00;;;;4926861;28;93679;-66
2023/03/04 06:17:12;;;;;;;7.00;4.40;;;2.90;99.90;2.50;100668.00;;;;4927763;28;110688;-65
2023/03/04 06:19:38;;;;;;;8.10;4.77;;;2.70;99.90;2.50;100660.00;;;;4928365;28;109019;-66
2023/03/04 06:22:04;;;;;;;5.40;3.77;;;2.70;99.90;2.50;100665.00;;;;4927813;28;94184;-65
2023/03/04 06:24:30;;;;;;;8.33;4.33;;;2.60;99.90;2.50;100664.00;;;;4926274;28;121606;-66
2023/03/04 06:26:56;;;;;;;6.00;4.40;;;2.70;99.90;2.40;100663.00;;;;4928166;28;110287;-67
2023/03/04 06:29:22;;;;;;;9.00;4.43;;;2.70;99.90;2.40;100670.00;;;;4928232;28;107341;-64
2023/03/04 06:31:47;;;;;;;10.20;4.03;;;2.70;99.90;2.40;100657.00;;;;4928432;28;94000;-65
2023/03/04 06:34:13;;;;;;;8.27;4.57;;;2.60;99.90;2.40;100663.00;;;;4926395;28;122556;-65
2023/03/04 06:36:39;;;;;;;5.37;3.77;;;2.70;99.90;2.40;100660.00;;;;4925964;28;110038;-66
2023/03/04 06:39:06;;;;;;;8.57;4.73;;;3.60;99.90;2.50;100674.00;;;;4929038;28;94787;-65
2023/03/04 06:41:33;;;;;;;10.37;3.73;;;2.70;99.90;2.40;100668.00;;;;4929046;28;113552;-65
2023/03/04 06:43:58;;;;;;;7.63;4.73;;;2.70;99.90;2.40;100659.00;;;;4936469;28;92971;-65
2023/03/04 06:46:25;;;;;;;6.20;4.03;;;2.70;99.90;2.50;100664.00;;;;4945203;28;110664;-66
2023/03/04 06:48:50;;;;;;;11.73;5.17;;;2.70;99.90;2.50;100665.00;;;;4940822;28;93900;-66
2023/03/04 06:51:16;;;;;;;7.27;4.70;;;2.70;99.90;2.40;100661.00;;;;4929743;28;116288;-66
2023/03/04 06:53:42;;;;;;;11.03;4.70;;;3.00;99.90;2.50;100667.00;;;;4926785;28;121079;-65
2023/03/04 06:56:11;;;;;;;11.57;3.93;;;2.70;99.90;2.50;100662.00;;;;4926158;28;110528;-64
2023/03/04 06:58:37;;;;;;;11.50;5.30;;;2.70;99.90;2.50;100668.00;;;;4909548;28;93669;-65
2023/03/04 07:01:29;;;;;;;11.27;6.13;;;2.70;99.90;2.50;100670.00;;;;4927208;28;102697;-66
2023/03/04 07:03:56;;;;;;;10.07;4.77;;;2.80;99.90;2.50;100659.00;;;;4928807;28;93537;-66
2023/03/04 07:06:25;;;;;;;4.33;3.57;;;2.70;99.90;2.60;100658.00;;;;4928878;28;92665;-66
2023/03/04 07:08:53;;;;;;;10.80;5.33;;;2.80;99.90;2.60;100671.00;;;;4925911;28;94266;-65
2023/03/04 07:11:21;;;;;;;6.87;4.57;;;2.80;99.90;2.60;100673.00;;;;4926026;28;102989;-65
2023/03/04 07:13:47;;;;;;;11.23;5.20;;;2.70;99.90;2.60;100658.00;;;;4924802;28;97475;-65
2023/03/04 07:16:18;;;;;;;6.57;4.37;;;3.60;99.90;2.60;100668.00;;;;4928104;28;92936;-65
2023/03/04 07:18:45;;;;;;;4.87;4.07;;;2.80;99.90;2.60;100670.00;;;;4928195;28;92736;-65
2023/03/04 07:21:13;;;;;;;11.00;6.60;;;2.80;99.90;2.60;100660.00;;;;4908565;28;93370;-66
2023/03/04 07:23:40;;;;;;;9.90;4.80;;;2.80;99.90;2.60;100661.00;;;;4926460;28;93023;-67
2023/03/04 07:26:06;;;;;;;11.73;7.37;;;2.80;99.90;2.60;100661.00;;;;4924936;28;93245;-65
2023/03/04 07:28:32;;;;;;;8.20;5.37;;;2.80;99.90;2.60;100659.00;;;;4926112;28;106826;-67
2023/03/04 07:31:22;;;;;;;10.07;4.97;;;2.80;99.90;2.60;100663.00;;;;4909970;28;94324;-65
2023/03/04 07:33:48;;;;;;;6.60;4.40;;;2.90;99.90;2.60;100663.00;;;;4928599;28;93055;-65
2023/03/04 07:36:15;;;;;;;12.50;5.50;;;2.80;99.90;2.70;100668.00;;;;4927663;28;94526;-66
2023/03/04 07:38:49;;;;;;;8.47;4.33;;;2.90;99.90;2.70;100669.00;;;;4929660;28;93864;-65
2023/03/04 07:41:16;;;;;;;10.77;4.83;;;2.80;99.90;2.70;100662.00;;;;4931198;28;93449;-66
2023/03/04 07:43:42;;;;;;;7.60;4.97;;;2.80;99.90;2.70;100667.00;;;;4930024;28;113999;-65
2023/03/04 07:46:08;;;;;;;5.90;3.87;;;3.00;99.90;2.70;100666.00;;;;4930614;28;100312;-66
2023/03/04 07:48:34;;;;;;;9.10;5.20;;;2.90;99.90;2.80;100692.00;;;;4931787;28;92754;-65
2023/03/04 07:51:15;;;;;;;6.03;4.20;;;3.00;99.90;2.80;100665.00;;;;4929693;28;93855;-66
2023/03/04 07:53:44;;;;;;;9.90;5.60;;;3.60;99.90;2.80;100673.00;;;;4930727;28;101939;-65
2023/03/04 07:56:18;;;;;;;8.57;4.87;;;3.60;99.90;2.80;100671.00;;;;4912206;28;92499;-65
2023/03/04 07:58:44;;;;;;;12.73;4.53;;;3.10;99.90;2.80;100660.00;;;;4932377;28;93064;-66
2023/03/04 08:01:16;;;;;;;4.73;4.23;;;3.10;99.90;2.90;100667.00;;;;4930839;28;93657;-65
2023/03/04 08:03:42;;;;;;;6.60;4.20;;;4.00;99.90;2.90;100663.00;;;;4930260;28;93878;-67
2023/03/04 08:06:12;;;;;;;13.20;6.27;;;3.10;99.90;2.90;100668.00;;;;4931174;28;94271;-67
2023/03/04 08:08:38;;;;;;;8.20;4.07;;;3.10;99.90;3.00;100662.00;;;;4931875;28;93172;-65
2023/03/04 08:11:13;;;;;;;6.80;4.50;;;3.10;99.90;3.00;100667.00;;;;4931351;28;93522;-65
2023/03/04 08:13:39;;;;;;;11.07;5.33;;;3.30;99.90;3.00;100647.00;;;;4930647;28;92908;-66
2023/03/04 08:16:05;;;;;;;7.47;4.93;;;3.40;99.90;3.00;100655.00;;;;4931786;28;105189;-67
2023/03/04 08:18:31;;;;;;;7.23;4.27;;;3.20;99.90;3.00;100649.00;;;;4931593;28;92853;-66
2023/03/04 08:20:57;;;;;;;11.07;5.10;;;3.30;99.90;3.10;100646.00;;;;4931404;28;92816;-66
2023/03/04 08:23:23;;;;;;;11.00;4.63;;;3.30;99.90;3.10;100654.00;;;;4931059;28;121604;-66
2023/03/04 08:25:49;;;;;;;6.07;3.87;;;3.30;99.90;3.10;100656.00;;;;4929430;28;96845;-66
2023/03/04 08:28:15;;;;;;;10.67;4.77;;;3.30;99.90;3.10;100649.00;;;;4908891;28;107770;-65
2023/03/04 08:30:41;;;;;;;15.03;3.80;;;3.40;99.90;3.20;100654.00;;;;4931341;28;97421;-66
2023/03/04 08:33:07;;;;;;;8.77;5.60;;;4.20;99.90;3.20;100657.00;;;;4930142;28;93684;-66
2023/03/04 08:35:37;;;;;;;11.30;4.83;;;3.70;99.90;3.20;100652.00;;;;4931253;28;92969;-66
2023/03/04 08:38:03;;;;;;;6.33;4.37;;;3.90;99.90;3.20;100652.00;;;;4928489;28;93124;-69
2023/03/04 08:40:29;;;;;;;11.50;5.57;;;3.50;99.90;3.30;100634.00;;;;4930026;28;94129;-67
2023/03/04 08:42:55;;;;;;;8.53;3.57;;;3.40;99.90;3.30;100648.00;;;;4929166;28;93049;-67
2023/03/04 08:45:21;;;;;;;6.17;3.83;;;3.50;99.90;3.40;100642.00;;;;4930610;28;92212;-67
2023/03/04 08:47:47;;;;;;;7.53;4.67;;;3.60;99.90;3.40;100655.00;;;;4930616;28;93102;-67
2023/03/04 08:50:12;;;;;;;6.40;4.90;;;3.60;99.90;3.40;100641.00;;;;4910715;28;122215;-66
2023/03/04 08:52:38;;;;;;;10.73;4.77;;;3.60;99.90;3.50;100638.00;;;;4928682;28;98569;-68
2023/03/04 08:55:04;;;;;;;5.70;4.30;;;3.60;99.90;3.50;100645.00;;;;4928531;28;109372;-66
2023/03/04 08:57:30;;;;;;;6.27;4.37;;;3.80;99.90;3.60;100642.00;;;;4929119;28;102302;-68
2023/03/04 08:59:56;;;;;;;11.60;4.47;;;3.70;99.90;3.60;100637.00;;;;4927533;28;122490;-66
2023/03/04 09:02:21;;;;;;;6.63;4.43;;;3.90;99.90;3.60;100640.00;;;;4928699;28;106288;-67
2023/03/04 09:04:47;;;;;;;9.07;4.43;;;3.70;99.90;3.60;100643.00;;;;4930252;28;93387;-67
2023/03/04 09:07:13;;;;;;;7.67;3.80;;;3.80;99.90;3.60;100661.00;;;;4928476;28;108432;-66
2023/03/04 09:09:39;;;;;;;5.10;4.07;;;3.90;99.90;3.60;100652.00;;;;4931075;28;92304;-68
2023/03/04 09:12:05;;;;;;;6.27;4.13;;;4.00;99.90;3.60;100648.00;;;;4929786;28;93112;-67
2023/03/04 09:14:34;;;;;;;7.47;4.60;;;3.80;99.90;3.70;100627.00;;;;4928744;28;92863;-67
2023/03/04 09:17:01;;;;;;;5.03;4.03;;;3.90;99.90;3.70;100646.00;;;;4927590;28;93933;-66
2023/03/04 09:19:29;;;;;;;6.33;4.77;;;3.90;99.90;3.60;100641.00;;;;4930674;28;93958;-68
2023/03/04 09:21:55;;;;;;;8.73;5.07;;;3.90;99.90;3.70;100632.00;;;;4928513;28;122257;-69
2023/03/04 09:24:21;;;;;;;8.20;4.13;;;3.80;99.90;3.70;100640.00;;;;4929968;28;93044;-66
2023/03/04 09:26:52;;;;;;;6.03;4.57;;;3.80;99.90;3.70;100638.00;;;;4929512;28;107094;-67
2023/03/04 09:29:17;;;;;;;8.83;4.73;;;3.90;99.90;3.70;100634.00;;;;4928773;28;92961;-66
2023/03/04 09:31:43;;;;;;;5.03;4.03;;;3.90;99.90;3.70;100643.00;;;;4926987;28;93347;-65
2023/03/04 09:34:09;;;;;;;9.77;4.17;;;3.80;99.90;3.70;100634.00;;;;4928898;28;109957;-66
2023/03/04 09:36:34;;;;;;;7.93;3.57;;;3.90;99.90;3.80;100638.00;;;;4928067;28;107570;-66
2023/03/04 09:39:03;;;;;;;12.20;4.53;;;4.00;99.90;3.80;100628.00;;;;4926931;28;122136;-65
2023/03/04 09:41:36;;;;;;;5.50;3.60;;;3.90;99.90;3.80;100624.00;;;;4928874;28;94231;-64
2023/03/04 09:44:31;;;;;;;7.50;4.53;;;4.00;99.90;3.80;100616.00;;;;4909505;28;98966;-65
2023/03/04 09:47:01;;;;;;;3.83;2.90;;;4.00;99.90;3.90;100622.00;;;;4930022;28;93215;-64
2023/03/04 09:49:27;;;;;;;7.70;4.60;;;4.70;99.90;3.90;100629.00;;;;4911105;28;93144;-64
2023/03/04 09:52:18;;;;;;;8.10;4.27;;;4.10;99.90;4.00;100621.00;;;;4928402;28;101557;-65
2023/03/04 09:55:34;;;;;;;7.27;4.60;;;4.10;99.90;4.10;100617.00;;;;4925710;28;93025;-63
2023/03/04 09:58:26;;;;;;;6.43;3.80;;;4.30;99.90;4.20;100625.00;;;;4918623;28;96434;-63
2023/03/04 10:01:25;;;;;;;3.87;3.43;;;4.40;99.90;4.30;100614.00;;;;4925798;28;111887;-65
2023/03/04 10:04:12;;;;;;;9.77;3.93;;;4.40;99.90;4.40;100621.00;;;;4930592;28;92977;-64
2023/03/04 10:06:40;;;;;;;4.90;4.17;;;4.60;99.90;4.40;100623.00;;;;4913568;28;93085;-64
2023/03/04 10:09:22;;;;;;;5.33;2.77;;;5.10;99.90;4.40;100604.00;;;;4909415;28;93944;-64
2023/03/04 10:12:05;;;;;;;3.47;3.13;;;5.10;99.90;4.40;100607.00;;;;4911832;28;93220;-64
2023/03/04 10:14:45;;;;;;;5.77;3.37;;;4.60;99.90;4.30;100606.00;;;;4922018;28;93426;-64
2023/03/04 10:17:21;;;;;;;4.77;2.33;;;4.50;99.90;4.30;100605.00;;;;4942334;28;94664;-63
2023/03/04 10:20:11;;;;;;;3.03;2.40;;;4.50;99.90;4.40;100611.00;;;;4926155;28;103235;-64
2023/03/04 10:22:49;;;;;;;4.80;3.37;;;4.60;99.90;4.50;100590.00;;;;4941150;28;114390;-64
2023/03/04 10:25:25;;;;;;;7.13;3.70;;;4.60;99.90;4.50;100604.00;;;;4927964;28;93406;-65
2023/03/04 10:28:15;;;;;;;4.63;3.30;;;4.90;99.90;4.40;100607.00;;;;4928750;28;92254;-64
2023/03/04 10:31:10;;;;;;;2.03;1.90;;;4.70;99.90;4.40;100604.00;;;;4929702;28;98156;-63
2023/03/04 10:33:40;;;;;;;4.73;3.27;;;4.70;99.90;4.40;100599.00;;;;4925954;28;94158;-65
2023/03/04 10:36:29;;;;;;;4.63;3.17;;;4.70;99.90;4.40;100592.00;;;;4927668;28;107478;-63
2023/03/04 10:39:21;;;;;;;9.80;3.60;;;4.70;99.90;4.40;100597.00;;;;4928692;28;93012;-66
2023/03/04 10:42:04;;;;;;;4.20;2.80;;;4.60;99.90;4.40;100599.00;;;;4926848;28;100855;-64
2023/03/04 10:44:33;;;;;;;6.53;3.13;;;4.60;99.90;4.40;100594.00;;;;4930594;28;93553;-64
2023/03/04 10:47:00;;;;;;;6.03;3.33;;;5.30;99.90;4.50;100590.00;;;;4937175;28;93289;-63
2023/03/04 10:49:29;;;;;;;6.77;2.67;;;4.60;99.90;4.50;100590.00;;;;4927809;28;93131;-63
2023/03/04 10:52:18;;;;;;;11.20;3.23;;;4.70;99.90;4.60;100592.00;;;;4927617;28;93208;-64
2023/03/04 10:54:51;;;;;;;4.43;3.00;;;5.50;99.90;4.60;100571.00;;;;4924517;28;114820;-64
2023/03/04 10:57:37;;;;;;;4.03;3.03;;;5.50;99.90;4.70;100569.00;;;;4926263;28;111393;-65
2023/03/04 11:00:19;;;;;;;3.93;3.60;;;4.80;99.90;4.90;100589.00;;;;4927055;28;94222;-64
2023/03/04 11:02:47;;;;;;;3.67;2.60;;;5.30;99.90;5.10;100586.00;;;;4922591;28;93716;-64
2023/03/04 11:05:24;;;;;;;4.13;2.63;;;6.00;99.90;5.10;100586.00;;;;4925823;28;115016;-63